Time;durP1;ratioP1;P1;durP2;ratioP2;P2;SDS_P1;SDS_P2;PMS_P1;PMS_P2;Temp;Humidity;BMP_temperature;BMP_pressure;BME280_temperature;BME280_humidity;BME280_pressure;Samples;Min_cycle;Max_cycle;Signal;HPM_P1;HPM_P2
2022/12/27 00:02:12;;;;;;;7.00;2.08;;;2.80;99.90;;;;;;4704688;28;9999870;-74
2022/12/27 00:04:38;;;;;;;9.82;2.50;;;2.80;99.90;;;;;;5058762;28;20137;-75
2022/12/27 00:07:04;;;;;;;8.25;2.25;;;2.70;99.90;;;;;;5063314;28;20419;-74
2022/12/27 00:09:29;;;;;;;12.55;1.88;;;2.70;99.90;;;;;;5059946;28;20525;-74
2022/12/27 00:11:55;;;;;;;7.22;2.10;;;2.70;99.90;;;;;;5057847;28;20383;-75
2022/12/27 00:14:20;;;;;;;5.53;2.00;;;2.70;99.90;;;;;;5057541;28;20039;-75
2022/12/27 00:16:46;;;;;;;7.53;1.90;;;2.60;99.90;;;;;;5066325;28;20073;-74
2022/12/27 00:19:12;;;;;;;8.43;1.80;;;2.60;99.90;;;;;;5063503;28;20576;-74
2022/12/27 00:21:37;;;;;;;8.32;1.88;;;2.60;99.90;;;;;;5064257;28;20076;-75
2022/12/27 00:24:03;;;;;;;8.70;2.08;;;2.60;99.90;;;;;;5061618;28;20024;-75
2022/12/27 00:26:32;;;;;;;9.20;1.88;;;2.60;99.90;;;;;;5064721;28;20129;-76
2022/12/27 00:28:58;;;;;;;7.25;1.90;;;2.60;99.90;;;;;;5063985;28;20066;-75
2022/12/27 00:31:25;;;;;;;7.18;1.95;;;2.60;99.90;;;;;;5063471;28;20023;-75
2022/12/27 00:33:54;;;;;;;9.60;2.38;;;2.60;99.90;;;;;;5059045;28;20036;-75
2022/12/27 00:36:25;;;;;;;8.30;2.20;;;2.60;99.90;;;;;;5061867;28;22001;-75
2022/12/27 00:38:52;;;;;;;12.88;2.30;;;2.50;99.90;;;;;;5069266;28;20449;-75
2022/12/27 00:41:19;;;;;;;10.80;2.45;;;2.50;99.90;;;;;;5061915;28;20541;-75
2022/12/27 00:43:45;;;;;;;9.30;2.22;;;2.50;99.90;;;;;;5059673;28;20171;-72
2022/12/27 00:46:11;;;;;;;9.02;2.17;;;2.60;99.90;;;;;;5064746;28;20132;-72
2022/12/27 00:48:36;;;;;;;15.90;2.63;;;2.60;99.90;;;;;;5063302;28;20094;-73
2022/12/27 00:51:11;;;;;;;10.75;2.60;;;2.50;99.90;;;;;;5062169;28;20042;-73
2022/12/27 00:53:37;;;;;;;13.23;2.53;;;2.50;99.90;;;;;;5058007;28;20544;-73
2022/12/27 00:56:08;;;;;;;9.70;2.50;;;2.50;99.90;;;;;;5061460;28;20035;-73
2022/12/27 00:58:34;;;;;;;7.63;2.42;;;2.50;99.90;;;;;;5062855;28;20032;-74
2022/12/27 01:01:11;;;;;;;10.80;2.95;;;2.50;99.90;;;;;;5063558;28;20159;-72
2022/12/27 01:03:38;;;;;;;8.82;3.10;;;2.60;99.90;;;;;;5059117;28;20032;-73
2022/12/27 01:06:07;;;;;;;16.30;4.50;;;2.60;99.90;;;;;;5059823;28;23209;-73
2022/12/27 01:08:33;;;;;;;11.93;3.00;;;2.60;99.90;;;;;;5063742;28;20033;-73
2022/12/27 01:10:59;;;;;;;9.25;3.03;;;2.60;99.90;;;;;;5060242;28;20098;-72
2022/12/27 01:13:24;;;;;;;9.20;3.00;;;2.60;99.90;;;;;;5059242;28;20097;-72
2022/12/27 01:15:50;;;;;;;10.07;2.97;;;2.50;99.90;;;;;;5061593;28;20024;-72
2022/12/27 01:18:15;;;;;;;10.80;2.67;;;2.50;99.90;;;;;;5062843;28;20050;-72
2022/12/27 01:20:41;;;;;;;9.25;2.83;;;2.40;99.90;;;;;;5063561;28;20107;-72
2022/12/27 01:23:07;;;;;;;15.93;3.55;;;2.40;99.90;;;;;;5059942;28;20046;-72
2022/12/27 01:25:32;;;;;;;8.15;2.45;;;2.40;99.90;;;;;;5057560;28;20086;-72
2022/12/27 01:27:58;;;;;;;15.02;2.78;;;2.40;99.90;;;;;;5065066;28;20122;-72
2022/12/27 01:30:23;;;;;;;11.95;3.30;;;2.30;99.90;;;;;;5062423;28;20046;-72
2022/12/27 01:32:49;;;;;;;10.70;3.80;;;2.30;99.90;;;;;;5062227;28;20059;-73
2022/12/27 01:35:14;;;;;;;10.70;3.13;;;2.30;99.90;;;;;;5060148;28;20386;-72
2022/12/27 01:37:40;;;;;;;12.27;3.80;;;2.30;99.90;;;;;;5062066;28;20028;-72
2022/12/27 01:40:06;;;;;;;12.20;4.15;;;2.30;99.90;;;;;;5062112;28;20105;-73
2022/12/27 01:43:14;;;;;;;15.18;3.70;;;2.20;99.90;;;;;;5055383;28;20046;-72
2022/12/27 01:45:22;;;;;;;8.48;3.80;;;2.20;99.90;;;;;;5052864;28;20060;-73
2022/12/27 01:48:13;;;;;;;12.50;3.92;;;2.20;99.90;;;;;;5062066;28;20677;-73
2022/12/27 01:50:46;;;;;;;10.80;3.92;;;2.30;99.90;;;;;;5059296;28;20117;-73
2022/12/27 01:53:22;;;;;;;10.20;3.47;;;2.20;99.90;;;;;;5060276;28;20067;-73
2022/12/27 01:55:51;;;;;;;14.40;3.80;;;2.30;99.90;;;;;;5059180;28;20133;-73
2022/12/27 01:58:30;;;;;;;12.77;3.97;;;2.20;99.90;;;;;;5059414;28;20032;-73
2022/12/27 02:00:57;;;;;;;11.68;4.32;;;2.20;99.90;;;;;;5060813;28;20078;-73
2022/12/27 02:03:25;;;;;;;10.60;4.32;;;2.20;99.90;;;;;;5056799;28;20028;-73
2022/12/27 02:05:51;;;;;;;14.25;4.57;;;2.20;99.90;;;;;;5057820;28;20050;-73
2022/12/27 02:08:28;;;;;;;11.85;4.35;;;2.30;99.90;;;;;;5060473;28;20032;-73
2022/12/27 02:10:56;;;;;;;14.45;4.28;;;2.30;99.90;;;;;;5059086;28;20038;-73
2022/12/27 02:13:22;;;;;;;8.57;4.00;;;2.30;99.90;;;;;;5059617;28;20028;-73
2022/12/27 02:15:47;;;;;;;15.18;4.38;;;2.20;99.90;;;;;;5058034;28;21037;-74
2022/12/27 02:18:13;;;;;;;8.90;4.18;;;2.20;99.90;;;;;;5058473;28;20031;-73
2022/12/27 02:21:04;;;;;;;12.57;4.15;;;2.20;99.90;;;;;;5061326;28;20028;-73
2022/12/27 02:24:05;;;;;;;16.95;4.65;;;2.20;99.90;;;;;;5057608;28;20035;-73
2022/12/27 02:27:08;;;;;;;20.58;4.82;;;2.20;99.90;;;;;;5062953;28;20144;-72
2022/12/27 02:30:00;;;;;;;12.80;4.28;;;2.20;99.90;;;;;;5060242;28;20078;-72
2022/12/27 02:32:54;;;;;;;14.65;4.60;;;2.20;99.90;;;;;;5059781;28;20035;-73
2022/12/27 02:35:22;;;;;;;15.23;4.55;;;2.10;99.90;;;;;;5058046;28;20031;-73
2022/12/27 02:38:01;;;;;;;10.15;3.50;;;2.10;99.90;;;;;;5058568;28;20050;-73
2022/12/27 02:55:29;;;;;;;12.68;3.08;;;2.00;99.90;;;;;;5035243;28;20066;-73
2022/12/27 02:58:15;;;;;;;9.45;2.60;;;2.00;99.90;;;;;;5059745;28;20111;-74
2022/12/27 03:03:51;;;;;;;10.43;2.95;;;2.00;99.90;;;;;;5056898;28;20038;-73
2022/12/27 03:06:44;;;;;;;11.27;2.53;;;1.90;99.90;;;;;;5057957;28;20036;-73
2022/12/27 03:18:26;;;;;;;11.65;2.47;;;1.80;99.90;;;;;;5065138;28;20042;-73
2022/12/27 03:26:29;;;;;;;9.48;2.50;;;1.80;99.90;;;;;;5063009;28;20573;-73
2022/12/27 03:34:39;;;;;;;12.60;2.60;;;1.80;99.90;;;;;;5059061;28;20596;-74
2022/12/27 03:40:13;;;;;;;13.00;2.70;;;1.90;99.90;;;;;;5063748;28;20028;-73
2022/12/27 03:48:23;;;;;;;9.73;2.75;;;2.00;99.90;;;;;;5062390;28;20045;-72
2022/12/27 03:50:53;;;;;;;9.25;2.67;;;2.00;99.90;;;;;;5064204;28;20036;-73
2022/12/27 03:53:37;;;;;;;8.50;2.42;;;2.00;99.90;;;;;;5061828;28;20934;-73
2022/12/27 03:56:04;;;;;;;9.70;2.67;;;1.90;99.90;;;;;;5059936;28;20570;-73
2022/12/27 03:58:30;;;;;;;9.07;2.65;;;1.90;99.90;;;;;;5063313;28;20670;-72
2022/12/27 04:00:56;;;;;;;10.40;3.20;;;1.90;99.90;;;;;;5063161;28;20032;-72
2022/12/27 04:03:21;;;;;;;11.57;3.38;;;1.90;99.90;;;;;;5062602;28;20217;-73
2022/12/27 04:05:47;;;;;;;11.23;2.80;;;1.90;99.90;;;;;;5063200;28;20497;-73
2022/12/27 04:35:35;;;;;;;9.38;3.33;;;1.90;99.90;;;;;;5058436;28;20051;-73
2022/12/27 04:38:01;;;;;;;10.75;4.00;;;2.00;99.90;;;;;;5065743;28;20390;-73
2022/12/27 04:57:03;;;;;;;11.25;3.28;;;2.00;99.90;;;;;;5060745;28;20027;-72
2022/12/27 05:02:14;;;;;;;13.30;5.70;;;1.90;99.90;;;;;;5062688;28;20096;-72
2022/12/27 05:04:41;;;;;;;16.55;4.70;;;1.90;99.90;;;;;;5060563;28;20447;-71
2022/12/27 05:15:22;;;;;;;17.38;4.47;;;1.90;99.90;;;;;;5059683;28;20047;-72
2022/12/27 05:17:47;;;;;;;13.57;4.18;;;1.90;99.90;;;;;;5058762;28;20029;-73
2022/12/27 05:20:13;;;;;;;13.63;4.60;;;1.80;99.90;;;;;;5057074;28;20036;-72
2022/12/27 05:25:36;;;;;;;14.18;4.57;;;1.90;99.90;;;;;;5057733;28;20402;-72
2022/12/27 05:28:05;;;;;;;15.15;5.88;;;1.90;99.90;;;;;;5063294;28;20047;-72
2022/12/27 05:30:32;;;;;;;16.42;6.18;;;1.80;99.90;;;;;;5061501;28;20078;-72
2022/12/27 05:32:58;;;;;;;10.85;4.45;;;1.90;99.90;;;;;;5059694;28;20036;-72
2022/12/27 05:35:23;;;;;;;11.93;4.68;;;1.90;99.90;;;;;;5059798;28;20033;-72
2022/12/27 05:37:49;;;;;;;13.68;4.22;;;1.90;99.90;;;;;;5060359;28;20032;-72
2022/12/27 05:40:15;;;;;;;10.90;4.43;;;1.90;99.90;;;;;;5063167;28;20118;-72
2022/12/27 05:42:40;;;;;;;11.45;4.28;;;2.00;99.90;;;;;;5061289;28;20051;-72
2022/12/27 05:45:06;;;;;;;8.02;3.85;;;2.00;99.90;;;;;;5057016;28;22154;-72
2022/12/27 05:47:32;;;;;;;11.48;4.30;;;2.00;99.90;;;;;;5063174;28;20042;-72
2022/12/27 05:49:58;;;;;;;14.32;4.30;;;1.90;99.90;;;;;;5060229;28;20543;-73
2022/12/27 05:52:23;;;;;;;21.73;4.97;;;1.90;99.90;;;;;;5058847;28;20028;-72
2022/12/27 05:54:49;;;;;;;8.73;4.15;;;2.00;99.90;;;;;;5058018;28;20082;-73
2022/12/27 05:57:15;;;;;;;9.60;4.60;;;2.00;99.90;;;;;;5061320;28;20024;-73
2022/12/27 05:59:40;;;;;;;13.57;5.15;;;2.00;99.90;;;;;;5061189;28;20089;-72
2022/12/27 06:02:06;;;;;;;13.02;5.38;;;2.00;99.90;;;;;;5064922;28;20024;-72
2022/12/27 06:04:31;;;;;;;13.48;5.85;;;2.00;99.90;;;;;;5055405;28;20059;-72
2022/12/27 06:06:58;;;;;;;15.30;6.40;;;1.90;99.90;;;;;;5058523;28;20028;-72
2022/12/27 06:09:25;;;;;;;17.52;6.38;;;2.00;99.90;;;;;;5060902;28;20032;-72
2022/12/27 06:11:50;;;;;;;15.10;5.78;;;2.00;99.90;;;;;;5058313;28;20041;-72
2022/12/27 06:14:16;;;;;;;14.73;5.57;;;2.10;99.90;;;;;;5058240;28;20453;-72
2022/12/27 06:16:42;;;;;;;15.35;4.53;;;2.10;99.90;;;;;;5059457;28;20020;-71
2022/12/27 06:19:07;;;;;;;12.45;5.00;;;2.10;99.90;;;;;;5057138;28;20409;-71
2022/12/27 06:21:33;;;;;;;13.50;5.80;;;2.20;99.90;;;;;;5077583;28;20085;-71
2022/12/27 06:23:58;;;;;;;15.43;6.10;;;2.20;99.90;;;;;;5072418;28;20585;-72
2022/12/27 06:26:26;;;;;;;30.20;8.93;;;2.30;99.90;;;;;;5080994;28;20086;-71
2022/12/27 06:28:55;;;;;;;20.85;8.45;;;2.30;99.90;;;;;;5079539;28;20016;-72
2022/12/27 06:31:21;;;;;;;29.00;11.18;;;2.30;99.90;;;;;;5080538;28;20036;-71
2022/12/27 06:33:48;;;;;;;14.20;6.32;;;2.30;99.90;;;;;;5074813;28;20026;-72
2022/12/27 06:36:16;;;;;;;17.55;6.35;;;2.40;99.90;;;;;;5063907;28;20035;-72
2022/12/27 06:38:42;;;;;;;11.25;4.30;;;2.40;99.90;;;;;;5076164;28;20033;-71
2022/12/27 06:41:10;;;;;;;13.02;4.65;;;2.40;99.90;;;;;;5077508;28;20062;-72
2022/12/27 06:43:36;;;;;;;12.13;4.10;;;2.50;99.90;;;;;;5073674;28;20054;-72
2022/12/27 06:46:04;;;;;;;10.40;3.40;;;2.50;99.90;;;;;;5070932;28;20413;-73
2022/12/27 06:48:30;;;;;;;9.60;3.30;;;2.50;99.90;;;;;;5066140;28;20024;-73
2022/12/27 06:50:56;;;;;;;7.90;3.78;;;2.50;99.90;;;;;;5066812;28;20020;-73
2022/12/27 06:53:22;;;;;;;11.52;3.88;;;2.50;99.90;;;;;;5077007;28;20474;-73
2022/12/27 06:55:48;;;;;;;10.05;4.38;;;2.50;99.90;;;;;;5080955;28;20033;-73
2022/12/27 06:58:13;;;;;;;8.25;3.28;;;2.50;99.90;;;;;;5088827;28;20486;-74
2022/12/27 07:00:40;;;;;;;10.18;4.00;;;2.50;99.90;;;;;;5081387;28;20020;-73
2022/12/27 07:03:06;;;;;;;12.18;3.78;;;2.50;99.90;;;;;;5079331;28;20645;-73
2022/12/27 07:05:34;;;;;;;12.90;4.43;;;2.50;99.90;;;;;;5087366;28;20033;-73
2022/12/27 07:08:00;;;;;;;10.77;3.45;;;2.60;99.90;;;;;;5074015;28;25172;-73
2022/12/27 07:10:25;;;;;;;10.65;3.45;;;2.60;99.90;;;;;;5080990;28;20482;-73
2022/12/27 07:12:51;;;;;;;10.77;3.65;;;2.60;99.90;;;;;;5083498;28;20036;-73
2022/12/27 07:15:16;;;;;;;14.75;3.00;;;2.70;99.90;;;;;;5087163;28;20019;-73
2022/12/27 07:17:42;;;;;;;11.52;3.28;;;2.70;99.90;;;;;;5084713;28;20024;-73
2022/12/27 07:20:08;;;;;;;9.18;3.05;;;2.70;99.90;;;;;;5081160;28;20052;-73
2022/12/27 07:22:34;;;;;;;11.48;3.40;;;2.70;99.90;;;;;;5082001;28;20028;-72
2022/12/27 07:24:59;;;;;;;9.25;2.80;;;2.80;99.90;;;;;;5083410;28;20157;-73
2022/12/27 07:27:25;;;;;;;11.27;3.58;;;2.80;99.90;;;;;;5089680;28;20040;-72
2022/12/27 07:29:51;;;;;;;12.55;3.63;;;2.80;99.90;;;;;;5083991;28;20040;-73
2022/12/27 07:32:16;;;;;;;8.52;3.30;;;2.80;99.90;;;;;;5080248;28;20028;-73
2022/12/27 07:34:42;;;;;;;13.15;3.33;;;2.80;99.90;;;;;;5081730;28;20020;-73
2022/12/27 07:37:08;;;;;;;13.75;3.30;;;2.80;99.90;;;;;;5077806;28;20051;-73
2022/12/27 07:39:33;;;;;;;7.13;2.63;;;2.90;99.90;;;;;;5080109;28;21102;-73
2022/12/27 07:41:59;;;;;;;6.93;2.67;;;2.80;99.90;;;;;;5088171;28;20028;-73
2022/12/27 07:44:25;;;;;;;8.32;2.58;;;2.90;99.90;;;;;;5085318;28;20097;-73
2022/12/27 07:46:51;;;;;;;7.72;2.40;;;2.90;99.90;;;;;;5079195;28;20187;-73
2022/12/27 07:49:17;;;;;;;10.23;3.28;;;2.90;99.90;;;;;;5079505;28;20037;-73
2022/12/27 07:51:42;;;;;;;15.85;3.03;;;3.00;99.90;;;;;;5081935;28;20732;-73
2022/12/27 07:54:08;;;;;;;10.57;2.50;;;3.00;99.90;;;;;;5079309;28;20106;-73
2022/12/27 07:56:34;;;;;;;8.40;2.70;;;3.00;99.90;;;;;;5080791;28;20024;-74
2022/12/27 07:59:01;;;;;;;9.57;2.63;;;3.10;99.90;;;;;;5079829;28;20028;-73
2022/12/27 08:01:28;;;;;;;11.80;3.00;;;3.10;99.90;;;;;;5078041;28;20498;-73
2022/12/27 08:03:54;;;;;;;12.05;3.03;;;3.20;99.90;;;;;;5072574;28;20481;-73
2022/12/27 08:06:23;;;;;;;8.30;3.28;;;3.20;99.90;;;;;;5079238;28;20035;-73
2022/12/27 08:08:51;;;;;;;7.72;2.70;;;3.20;99.90;;;;;;5084670;28;20028;-74
2022/12/27 08:11:17;;;;;;;9.02;2.83;;;3.20;99.90;;;;;;5077647;28;20067;-73
2022/12/27 08:13:43;;;;;;;9.20;3.03;;;3.20;99.90;;;;;;5082341;28;20520;-73
2022/12/27 08:16:15;;;;;;;11.95;3.10;;;3.20;99.90;;;;;;5084206;28;20017;-74
2022/12/27 08:18:41;;;;;;;10.95;2.28;;;3.30;99.90;;;;;;5084282;28;20086;-73
2022/12/27 08:21:06;;;;;;;9.73;3.08;;;3.30;99.90;;;;;;5078639;28;20032;-74
2022/12/27 08:23:32;;;;;;;9.68;2.92;;;3.30;99.90;;;;;;5079935;28;20016;-73
2022/12/27 08:25:58;;;;;;;7.15;3.00;;;3.30;99.90;;;;;;5076341;28;20481;-73
2022/12/27 08:28:24;;;;;;;11.60;3.17;;;3.40;99.90;;;;;;5081644;28;20027;-74
2022/12/27 08:30:49;;;;;;;14.10;3.63;;;3.40;99.90;;;;;;5081635;28;20482;-74
2022/12/27 08:33:15;;;;;;;8.75;3.88;;;3.50;99.90;;;;;;5079806;28;20120;-74
2022/12/27 08:35:42;;;;;;;14.73;4.35;;;3.50;99.90;;;;;;5079749;28;20117;-74
2022/12/27 08:38:08;;;;;;;19.13;6.15;;;3.60;99.90;;;;;;5079865;28;20086;-73
2022/12/27 08:40:38;;;;;;;14.55;6.22;;;3.60;99.90;;;;;;5083636;28;20028;-73
2022/12/27 08:43:03;;;;;;;11.57;6.85;;;3.70;99.90;;;;;;5082697;28;20465;-73
2022/12/27 08:45:29;;;;;;;17.25;6.93;;;3.70;99.90;;;;;;5085724;28;20075;-73
2022/12/27 08:47:58;;;;;;;15.20;6.10;;;3.80;99.90;;;;;;5080567;28;20393;-73
2022/12/27 08:50:23;;;;;;;14.00;5.72;;;3.90;99.90;;;;;;5080061;28;20379;-73
2022/12/27 08:52:49;;;;;;;24.23;10.68;;;4.00;99.90;;;;;;5077967;28;20035;-73
2022/12/27 08:55:41;;;;;;;18.15;8.35;;;4.10;99.90;;;;;;5079619;28;20073;-73
2022/12/27 08:58:06;;;;;;;13.45;5.28;;;4.20;99.90;;;;;;5077994;28;20040;-74
2022/12/27 09:00:32;;;;;;;12.95;3.70;;;4.40;99.90;;;;;;5073151;28;20085;-75
2022/12/27 09:02:58;;;;;;;9.75;3.10;;;4.50;99.90;;;;;;5086136;28;20082;-74
2022/12/27 09:05:26;;;;;;;8.82;4.18;;;4.60;99.90;;;;;;5087158;28;20409;-75
2022/12/27 09:07:51;;;;;;;6.63;2.67;;;4.70;99.90;;;;;;5082155;28;20032;-74
2022/12/27 09:10:18;;;;;;;8.48;4.50;;;4.80;99.90;;;;;;5079061;28;20031;-75
2022/12/27 09:12:47;;;;;;;11.85;5.20;;;4.90;99.90;;;;;;5080468;28;20040;-74
2022/12/27 09:15:12;;;;;;;12.85;4.47;;;4.90;99.90;;;;;;5081997;28;20074;-74
2022/12/27 09:17:39;;;;;;;9.27;3.95;;;5.00;99.90;;;;;;5076436;28;20032;-75
2022/12/27 09:20:05;;;;;;;9.88;4.95;;;5.00;99.90;;;;;;5077806;28;20023;-74
2022/12/27 09:22:31;;;;;;;8.82;2.80;;;5.00;99.90;;;;;;5069743;28;20410;-75
2022/12/27 09:24:57;;;;;;;12.55;3.35;;;5.00;99.90;;;;;;5078743;28;20016;-75
2022/12/27 09:27:22;;;;;;;9.27;2.90;;;4.90;99.90;;;;;;5076062;28;20033;-76
2022/12/27 09:29:48;;;;;;;11.73;2.55;;;4.90;99.90;;;;;;5073512;28;20043;-75
2022/12/27 09:32:13;;;;;;;10.23;3.10;;;4.90;99.90;;;;;;5080525;28;22447;-76
2022/12/27 09:34:39;;;;;;;9.13;2.95;;;4.90;99.90;;;;;;5078607;28;20059;-76
2022/12/27 09:37:04;;;;;;;11.18;3.25;;;5.00;99.90;;;;;;5081206;28;20672;-75
2022/12/27 09:39:30;;;;;;;11.85;3.22;;;5.10;99.90;;;;;;5075306;28;20031;-77
2022/12/27 09:42:37;;;;;;;8.48;3.30;;;5.10;99.90;;;;;;5082408;28;20531;-75
2022/12/27 09:45:37;;;;;;;8.27;3.08;;;5.10;99.90;;;;;;5026859;28;20044;-76
2022/12/27 09:48:27;;;;;;;10.20;3.40;;;5.20;99.90;;;;;;5105483;27;20120;-74
2022/12/27 09:51:00;;;;;;;9.38;3.45;;;5.30;99.90;;;;;;5098175;28;20040;-73
2022/12/27 09:53:43;;;;;;;8.85;2.65;;;5.30;99.90;;;;;;5096078;28;20024;-73
2022/12/27 09:56:12;;;;;;;14.30;3.10;;;5.40;99.90;;;;;;5091396;28;20036;-72
2022/12/27 09:58:50;;;;;;;7.53;2.50;;;5.50;99.90;;;;;;5097324;28;20419;-72
2022/12/27 10:01:31;;;;;;;8.43;2.35;;;5.60;99.90;;;;;;5079226;28;20158;-72
2022/12/27 10:03:58;;;;;;;7.68;2.50;;;5.70;99.90;;;;;;5078054;28;20020;-73
2022/12/27 10:06:48;;;;;;;7.50;2.30;;;5.80;99.90;;;;;;5081224;28;20496;-72
2022/12/27 10:09:35;;;;;;;7.07;2.50;;;5.90;99.90;;;;;;5076414;28;20035;-73
2022/12/27 10:12:26;;;;;;;9.98;2.75;;;5.90;99.90;;;;;;5076170;28;20477;-72
2022/12/27 10:15:12;;;;;;;8.60;2.72;;;6.00;99.90;;;;;;5069122;28;20031;-72
2022/12/27 10:18:02;;;;;;;10.13;2.50;;;6.00;99.90;;;;;;5099963;28;20028;-73
2022/12/27 10:20:46;;;;;;;13.80;2.55;;;6.00;99.90;;;;;;5072899;28;20044;-73
2022/12/27 10:23:19;;;;;;;8.45;2.85;;;6.00;99.90;;;;;;5070542;28;20708;-73
2022/12/27 10:25:46;;;;;;;9.60;2.80;;;6.10;99.90;;;;;;5072510;28;20035;-73
2022/12/27 10:28:17;;;;;;;6.78;2.80;;;6.20;99.90;;;;;;5084672;28;20020;-73
2022/12/27 10:30:44;;;;;;;10.20;2.55;;;6.20;99.90;;;;;;5076802;28;20032;-73
2022/12/27 10:33:19;;;;;;;6.53;2.72;;;6.10;99.90;;;;;;5076752;28;20032;-73
2022/12/27 10:35:47;;;;;;;11.43;2.63;;;6.10;99.90;;;;;;5075504;28;20050;-73
2022/12/27 10:38:12;;;;;;;9.90;2.97;;;6.00;99.90;;;;;;4716472;28;10000330;-73
2022/12/27 10:40:45;;;;;;;11.68;2.42;;;6.00;99.90;;;;;;5071689;28;20729;-73
2022/12/27 10:43:22;;;;;;;5.35;2.05;;;6.00;99.90;;;;;;5071984;28;20031;-73
2022/12/27 10:45:48;;;;;;;8.52;2.67;;;6.00;99.90;;;;;;5073509;28;20055;-73
2022/12/27 10:48:24;;;;;;;8.98;2.58;;;6.00;99.90;;;;;;5079068;28;20032;-73
2022/12/27 10:51:08;;;;;;;13.32;2.13;;;5.90;99.90;;;;;;5067399;28;20042;-72
2022/12/27 10:53:37;;;;;;;11.50;2.53;;;5.90;99.90;;;;;;5084310;28;20110;-73
2022/12/27 10:56:06;;;;;;;10.55;2.35;;;5.80;99.90;;;;;;5078656;28;20618;-73
2022/12/27 10:58:46;;;;;;;8.65;2.35;;;5.90;99.90;;;;;;5069585;28;20025;-73
2022/12/27 11:01:33;;;;;;;6.88;2.38;;;5.90;99.90;;;;;;5050092;28;20406;-73
2022/12/27 11:04:22;;;;;;;9.70;2.60;;;5.90;99.90;;;;;;5056555;28;20471;-72
2022/12/27 11:07:11;;;;;;;6.82;2.50;;;6.00;99.90;;;;;;5047458;28;20151;-71
2022/12/27 11:09:42;;;;;;;6.30;2.65;;;6.10;99.90;;;;;;5062779;28;20489;-73
2022/12/27 11:12:19;;;;;;;7.68;2.15;;;6.10;99.90;;;;;;5047682;28;20040;-74
2022/12/27 11:15:19;;;;;;;6.40;2.40;;;6.10;99.90;;;;;;5051138;28;20370;-76
2022/12/27 11:17:51;;;;;;;5.85;2.13;;;6.10;99.90;;;;;;5047473;28;20064;-71
2022/12/27 11:20:33;;;;;;;5.10;1.60;;;6.20;99.90;;;;;;5066643;28;20123;-72
2022/12/27 11:23:07;;;;;;;9.07;2.00;;;6.20;99.90;;;;;;5062390;28;20036;-73
2022/12/27 11:25:34;;;;;;;10.27;2.20;;;6.20;99.90;;;;;;5063459;28;20230;-74
2022/12/27 11:28:23;;;;;;;10.57;2.42;;;6.20;99.90;;;;;;5061565;28;20032;-72
2022/12/27 11:31:03;;;;;;;6.95;2.30;;;6.20;99.90;;;;;;5062933;28;20036;-71
2022/12/27 11:33:50;;;;;;;8.60;2.45;;;6.20;99.90;;;;;;5054273;28;20060;-72
2022/12/27 11:36:33;;;;;;;8.10;2.30;;;6.20;99.90;;;;;;5054421;28;20032;-72
2022/12/27 11:38:59;;;;;;;7.38;2.38;;;6.40;99.90;;;;;;5059727;28;20028;-73
2022/12/27 11:41:36;;;;;;;14.00;3.70;;;6.50;99.90;;;;;;5069414;28;20098;-73
2022/12/27 11:44:09;;;;;;;7.18;2.20;;;6.60;99.90;;;;;;5052464;28;20037;-76
2022/12/27 11:46:55;;;;;;;8.93;2.30;;;6.70;99.90;;;;;;5047030;28;20105;-73
2022/12/27 11:49:31;;;;;;;9.90;2.90;;;6.70;99.90;;;;;;5058185;28;20035;-74
2022/12/27 11:52:05;;;;;;;13.88;6.53;;;6.80;99.90;;;;;;5059265;28;20017;-74
2022/12/27 11:54:45;;;;;;;12.73;4.20;;;6.90;99.90;;;;;;5058693;28;20046;-73
2022/12/27 11:57:28;;;;;;;6.85;2.25;;;6.90;99.90;;;;;;5055654;28;20039;-74
2022/12/27 12:00:12;;;;;;;7.10;2.28;;;7.00;99.90;;;;;;5045014;28;20044;-74
2022/12/27 12:03:15;;;;;;;5.68;2.40;;;7.10;99.90;;;;;;5053753;28;20659;-74
2022/12/27 12:06:08;;;;;;;10.65;2.00;;;7.20;99.90;;;;;;5057847;28;20590;-74
2022/12/27 12:08:58;;;;;;;6.07;1.65;;;7.10;99.90;;;;;;5057980;28;20426;-73
2022/12/27 12:11:42;;;;;;;7.80;2.05;;;7.10;99.90;;;;;;5058461;28;20025;-73
2022/12/27 12:14:24;;;;;;;8.48;1.88;;;7.00;99.90;;;;;;5059693;28;20153;-73
2022/12/27 12:17:13;;;;;;;7.50;2.37;;;7.00;99.90;;;;;;5057090;28;20121;-73
2022/12/27 12:19:57;;;;;;;4.07;1.65;;;7.10;99.90;;;;;;5039511;28;20289;-74
2022/12/27 12:22:29;;;;;;;9.38;1.95;;;7.10;99.90;;;;;;5064488;28;20039;-73
2022/12/27 12:25:22;;;;;;;7.50;2.03;;;7.00;99.90;;;;;;4706516;28;9999796;-75
2022/12/27 12:27:48;;;;;;;;;;;7.00;99.90;;;;;;5051335;28;20032;-76
2022/12/27 12:30:37;;;;;;;6.38;2.20;;;6.90;99.90;;;;;;5060761;28;19918;-76
2022/12/27 12:33:35;;;;;;;5.60;2.03;;;6.90;99.90;;;;;;5057480;28;20036;-76
2022/12/27 12:36:34;;;;;;;9.02;2.38;;;6.90;99.90;;;;;;5057879;28;20032;-76
2022/12/27 12:39:25;;;;;;;8.52;2.25;;;6.90;99.90;;;;;;5064908;28;20028;-72
2022/12/27 12:42:09;;;;;;;4.05;2.17;;;6.90;99.90;;;;;;5057268;28;20074;-75
2022/12/27 12:44:56;;;;;;;6.80;2.00;;;6.90;99.90;;;;;;5056976;28;20121;-71
2022/12/27 12:47:39;;;;;;;7.03;2.60;;;6.90;99.90;;;;;;5054891;28;20045;-72
2022/12/27 12:50:36;;;;;;;4.70;1.57;;;6.90;99.90;;;;;;5056881;28;20029;-72
2022/12/27 12:53:16;;;;;;;6.72;2.30;;;6.90;99.90;;;;;;5055051;28;20059;-71
2022/12/27 12:56:01;;;;;;;8.80;2.38;;;7.00;99.90;;;;;;5056846;28;20051;-73
2022/12/27 12:58:39;;;;;;;7.05;2.00;;;7.00;99.90;;;;;;5057004;28;20042;-74
2022/12/27 13:01:33;;;;;;;5.07;2.50;;;7.00;99.90;;;;;;5051342;28;20388;-72
2022/12/27 13:04:31;;;;;;;5.40;2.22;;;7.00;99.90;;;;;;5059900;28;20032;-73
2022/12/27 13:07:39;;;;;;;11.82;2.83;;;6.90;99.90;;;;;;5060050;28;20131;-72
2022/12/27 13:10:42;;;;;;;5.68;1.95;;;6.90;99.90;;;;;;5056184;28;20036;-73
2022/12/27 13:13:24;;;;;;;5.40;1.73;;;6.90;99.90;;;;;;5057863;28;20035;-73
2022/12/27 13:16:00;;;;;;;6.90;2.08;;;6.90;99.90;;;;;;5062605;28;20027;-72
2022/12/27 13:18:56;;;;;;;6.50;1.70;;;7.00;99.90;;;;;;5057282;28;20027;-72
2022/12/27 13:21:22;;;;;;;8.70;2.05;;;7.00;99.90;;;;;;5066833;28;20021;-72
2022/12/27 13:24:30;;;;;;;8.88;1.50;;;7.10;99.90;;;;;;5061473;28;20031;-74
2022/12/27 13:27:24;;;;;;;10.00;2.70;;;7.00;99.90;;;;;;5048318;28;20105;-74
2022/12/27 13:30:33;;;;;;;4.13;1.58;;;7.00;99.90;;;;;;5064236;28;20589;-73
2022/12/27 13:33:17;;;;;;;6.80;2.17;;;7.00;99.90;;;;;;5051675;28;20082;-72
2022/12/27 13:36:32;;;;;;;6.15;1.50;;;7.00;99.90;;;;;;5068591;28;20488;-73
2022/12/27 13:39:29;;;;;;;6.47;1.58;;;7.00;99.90;;;;;;4999746;28;20030;-72
2022/12/27 13:42:16;;;;;;;9.93;2.92;;;6.90;99.90;;;;;;5061606;28;20037;-74
2022/12/27 13:45:20;;;;;;;7.57;2.75;;;6.90;99.90;;;;;;5059273;28;20026;-72
2022/12/27 13:48:07;;;;;;;8.23;2.95;;;6.80;99.90;;;;;;5070241;28;20040;-74
2022/12/27 13:50:52;;;;;;;11.68;2.38;;;6.70;99.90;;;;;;5064000;28;20388;-72
2022/12/27 13:53:56;;;;;;;6.13;2.20;;;6.60;99.90;;;;;;5060916;28;20540;-74
2022/12/27 13:56:34;;;;;;;12.40;3.80;;;6.60;99.90;;;;;;4998053;28;20044;-72
2022/12/27 13:59:15;;;;;;;15.25;3.95;;;6.50;99.90;;;;;;5004493;28;20040;-73
2022/12/27 14:01:53;;;;;;;8.15;2.17;;;6.50;99.90;;;;;;5030884;28;20043;-73
2022/12/27 14:04:51;;;;;;;8.88;2.00;;;6.50;99.90;;;;;;5058428;28;20572;-71
2022/12/27 14:07:35;;;;;;;8.23;2.20;;;6.40;99.90;;;;;;5057422;28;20031;-72
2022/12/27 14:10:30;;;;;;;5.82;2.50;;;6.30;99.90;;;;;;5059211;28;20105;-72
2022/12/27 14:12:57;;;;;;;;;;;6.30;99.90;;;;;;5057150;28;20111;-72
2022/12/27 14:15:32;;;;;;;18.35;8.23;;;6.20;99.90;;;;;;5048545;28;19947;-74
2022/12/27 14:18:14;;;;;;;17.70;7.22;;;6.20;99.90;;;;;;5062338;28;20115;-73
2022/12/27 14:20:49;;;;;;;23.85;10.77;;;;;;;;;;5045563;28;20039;-73
2022/12/27 14:23:30;;;;;;;20.75;9.82;;;;;;;;;;5059476;28;20104;-72
2022/12/27 14:26:15;;;;;;;18.10;8.77;;;;;;;;;;5053846;28;20033;-73
2022/12/27 14:29:00;;;;;;;12.88;5.05;;;;;;;;;;5053795;28;20027;-74
2022/12/27 14:31:46;;;;;;;12.48;5.20;;;;;;;;;;5063901;28;20032;-73
2022/12/27 14:34:18;;;;;;;12.00;5.95;;;;;;;;;;5061459;28;20667;-74
2022/12/27 14:37:08;;;;;;;13.95;6.35;;;;;;;;;;5053773;28;20032;-74
2022/12/27 14:39:59;;;;;;;16.48;6.05;;;;;;;;;;5061627;28;20039;-74
2022/12/27 14:42:38;;;;;;;13.02;5.20;;;;;;;;;;5061848;28;20635;-74
2022/12/27 14:45:17;;;;;;;12.60;4.47;;;;;;;;;;5066064;28;20033;-74
2022/12/27 14:47:46;;;;;;;14.80;6.00;;;;;;;;;;5063277;28;20051;-73
2022/12/27 14:50:31;;;;;;;12.48;4.75;;;;;;;;;;5065549;28;20024;-73
2022/12/27 14:53:07;;;;;;;15.25;5.38;;;;;;;;;;5059093;28;20322;-73
2022/12/27 14:55:54;;;;;;;13.73;4.13;;;;;;;;;;4705258;28;9999749;-71
2022/12/27 14:58:41;;;;;;;10.07;3.90;;;;;;;;;;5057641;28;20031;-75
2022/12/27 15:01:18;;;;;;;8.43;3.30;;;;;;;;;;5062431;28;20061;-72
2022/12/27 15:03:47;;;;;;;10.60;3.20;;;;;;;;;;5052342;28;20046;-73
2022/12/27 15:06:32;;;;;;;9.38;3.10;;;;;;;;;;5068032;28;20654;-71
2022/12/27 15:09:13;;;;;;;11.45;3.58;;;;;;;;;;5054879;28;20561;-74
2022/12/27 15:11:58;;;;;;;7.97;2.92;;;;;;;;;;5054437;28;20037;-73
2022/12/27 15:14:30;;;;;;;10.35;3.05;;;;;;;;;;5046396;28;20579;-73
2022/12/27 15:17:13;;;;;;;7.90;2.45;;;;;;;;;;5057414;28;20036;-73
2022/12/27 15:19:42;;;;;;;7.72;2.63;;;;;;;;;;5053270;28;20032;-73